Time;durP1;ratioP1;P1;durP2;ratioP2;P2;SDS_P1;SDS_P2;PMS_P1;PMS_P2;Temp;Humidity;BMP_temperature;BMP_pressure;BME280_temperature;BME280_humidity;BME280_pressure;Samples;Min_cycle;Max_cycle;Signal;HPM_P1;HPM_P2
2022/05/21 00:01:39;;;;;;;2.10;2.00;;;;;;;16.51;55.02;95488.84;5063597;28;20190;-74
2022/05/21 00:04:06;;;;;;;5.07;2.38;;;;;;;16.36;55.38;95494.69;5063218;28;22089;-73
2022/05/21 00:06:33;;;;;;;2.25;2.03;;;;;;;16.07;56.25;95489.28;5062336;28;20296;-74
2022/05/21 00:09:00;;;;;;;9.90;3.08;;;;;;;15.96;56.20;95494.09;5063130;28;20205;-74
2022/05/21 00:11:28;;;;;;;4.32;2.30;;;;;;;15.58;57.51;95486.47;5063684;28;20290;-72
2022/05/21 00:13:56;;;;;;;4.93;2.00;;;;;;;15.43;57.81;95487.13;5063055;28;20887;-73
2022/05/21 00:16:23;;;;;;;4.68;2.60;;;;;;;15.38;57.42;95493.34;5062623;28;21677;-73
2022/05/21 00:18:50;;;;;;;2.78;2.50;;;;;;;15.13;58.57;95498.75;5061698;28;20298;-73
2022/05/21 00:21:17;;;;;;;5.38;2.08;;;;;;;15.02;59.38;95495.84;5060553;28;20695;-73
2022/05/21 00:23:43;;;;;;;4.32;2.60;;;;;;;14.80;59.44;95496.78;5062870;28;20258;-73
2022/05/21 00:26:12;;;;;;;4.47;2.15;;;;;;;14.74;59.70;95484.25;5063483;28;20873;-73
2022/05/21 00:28:42;;;;;;;4.57;2.00;;;;;;;14.80;59.72;95483.16;5063280;28;20555;-72
2022/05/21 00:31:12;;;;;;;3.60;2.17;;;;;;;14.94;59.04;95476.53;5064123;28;20213;-75
2022/05/21 00:33:39;;;;;;;5.10;2.45;;;;;;;15.31;58.24;95473.19;5063026;28;20794;-74
2022/05/21 00:36:07;;;;;;;2.38;2.28;;;;;;;15.39;57.77;95467.69;5063916;28;20202;-73
2022/05/21 00:38:34;;;;;;;5.13;2.03;;;;;;;15.50;57.14;95467.19;5064339;28;20208;-73
2022/05/21 00:41:02;;;;;;;2.17;2.08;;;;;;;15.51;56.99;95454.31;5063882;28;20205;-73
2022/05/21 00:43:46;;;;;;;2.97;1.95;;;;;;;15.75;56.71;95462.63;5064182;28;20338;-74
2022/05/21 00:46:14;;;;;;;3.90;2.38;;;;;;;15.89;55.91;95464.50;5063198;28;20251;-73
2022/05/21 00:48:42;;;;;;;2.72;2.10;;;;;;;15.98;55.46;95462.34;5062854;28;20206;-73
2022/05/21 00:51:14;;;;;;;3.15;2.70;;;;;;;15.97;55.71;95453.00;5063424;28;20206;-73
2022/05/21 00:53:42;;;;;;;2.95;1.95;;;;;;;15.94;55.78;95457.44;5062350;28;20736;-73
2022/05/21 00:56:11;;;;;;;2.60;2.05;;;;;;;15.80;56.20;95453.00;5063470;28;20201;-73
2022/05/21 01:01:29;;;;;;;2.13;2.03;;;;;;;15.56;57.06;95454.16;5063786;28;20691;-73
2022/05/21 01:03:55;;;;;;;3.22;2.08;;;;;;;15.79;56.53;95448.75;5062980;28;20254;-73
2022/05/21 01:06:23;;;;;;;4.15;2.20;;;;;;;15.85;56.59;95447.63;5063212;28;20198;-77
2022/05/21 01:08:49;;;;;;;2.70;1.80;;;;;;;15.72;57.00;95437.13;5063952;28;20707;-75
2022/05/21 01:11:19;;;;;;;3.03;2.28;;;;;;;15.10;59.15;95443.41;5062950;28;20258;-78
2022/05/21 01:13:49;;;;;;;2.40;2.20;;;;;;;14.98;59.20;95442.22;5061063;28;20225;-76
2022/05/21 01:16:17;;;;;;;2.38;2.05;;;;;;;14.59;60.80;95441.44;5062322;28;20667;-75
2022/05/21 01:18:44;;;;;;;2.22;2.10;;;;;;;14.21;61.64;95445.56;5063488;28;20744;-76
2022/05/21 01:21:11;;;;;;;2.60;2.40;;;;;;;13.67;64.64;95448.63;5063194;28;20796;-78
2022/05/21 01:23:39;;;;;;;3.85;2.50;;;;;;;13.57;64.66;95451.56;5063525;28;20210;-79
2022/05/21 01:26:14;;;;;;;4.53;2.72;;;;;;;13.92;63.47;95444.19;5062981;28;20540;-76
2022/05/21 01:28:41;;;;;;;3.83;2.15;;;;;;;14.24;62.38;95461.63;5062744;28;20193;-76
2022/05/21 01:31:08;;;;;;;4.43;1.80;;;;;;;14.30;62.59;95456.25;5063143;28;20844;-76
2022/05/21 01:33:37;;;;;;;4.15;2.28;;;;;;;14.08;62.91;95452.94;5062988;28;20275;-76
2022/05/21 01:36:06;;;;;;;2.42;2.22;;;;;;;13.82;63.25;95458.25;5062289;28;20271;-75
2022/05/21 01:38:36;;;;;;;5.75;2.53;;;;;;;13.57;64.30;95449.00;5064519;28;20288;-81
2022/05/21 01:41:04;;;;;;;3.17;2.50;;;;;;;13.77;63.82;95455.03;5064867;28;20701;-76
2022/05/21 01:46:17;;;;;;;3.33;2.50;;;;;;;13.55;64.55;95450.78;5064461;28;20267;-77
2022/05/21 01:48:45;;;;;;;7.50;2.45;;;;;;;13.05;65.98;95450.13;5063482;28;20258;-79
2022/05/21 01:51:12;;;;;;;4.25;2.13;;;;;;;12.81;66.76;95441.66;5065109;28;20638;-76
2022/05/21 01:53:40;;;;;;;2.88;2.67;;;;;;;12.68;66.77;95450.59;5064165;28;20225;-76
2022/05/21 01:56:09;;;;;;;2.58;2.10;;;;;;;12.56;67.62;95451.06;5065387;28;20202;-77
2022/05/21 01:58:36;;;;;;;2.90;2.28;;;;;;;12.56;67.29;95449.34;5064489;28;20205;-77
2022/05/21 02:01:05;;;;;;;4.15;2.50;;;;;;;12.77;66.80;95440.09;5065253;28;20209;-76
2022/05/21 02:03:32;;;;;;;2.83;2.63;;;;;;;12.48;67.79;95427.53;5063225;28;20570;-76
2022/05/21 02:05:59;;;;;;;9.52;3.05;;;;;;;12.22;69.04;95441.19;5066073;28;20232;-74
2022/05/21 02:08:26;;;;;;;2.83;2.60;;;;;;;11.90;70.29;95434.59;5067502;28;20749;-81
2022/05/21 02:10:53;;;;;;;2.47;2.17;;;;;;;11.92;70.25;95422.63;5068562;28;20198;-76
2022/05/21 02:13:23;;;;;;;2.85;2.63;;;;;;;11.93;70.43;95427.69;5072892;28;20314;-76
2022/05/21 02:15:50;;;;;;;3.50;2.50;;;;;;;11.90;70.58;95429.50;5072101;28;20730;-76
2022/05/21 02:18:17;;;;;;;3.88;2.83;;;;;;;11.88;70.40;95415.97;5067578;28;20715;-79
2022/05/21 02:20:44;;;;;;;3.22;2.38;;;;;;;11.99;70.13;95418.19;5068520;28;20298;-76
2022/05/21 02:23:12;;;;;;;3.50;2.78;;;;;;;12.19;69.68;95421.72;5067718;28;20668;-77
2022/05/21 02:25:39;;;;;;;3.00;2.55;;;;;;;12.54;68.61;95428.16;5068050;28;21463;-76
2022/05/21 02:28:07;;;;;;;5.32;2.60;;;;;;;12.94;67.27;95427.53;5068226;28;20205;-77
2022/05/21 02:30:36;;;;;;;4.25;3.10;;;;;;;13.00;66.23;95410.34;5067424;28;20216;-77
2022/05/21 02:33:03;;;;;;;5.55;3.15;;;;;;;13.14;65.93;95408.09;5067636;28;20276;-77
2022/05/21 02:35:29;;;;;;;5.88;2.85;;;;;;;13.30;65.98;95424.53;5068118;28;20259;-75
2022/05/21 02:40:40;;;;;;;2.65;2.45;;;;;;;13.26;65.71;95410.22;5067750;28;20332;-76
2022/05/21 02:43:07;;;;;;;6.13;2.83;;;;;;;13.12;66.01;95399.66;5067517;28;20216;-79
2022/05/21 02:45:35;;;;;;;4.43;2.90;;;;;;;13.33;65.57;95414.22;5067375;28;20209;-78
2022/05/21 02:48:02;;;;;;;3.92;2.40;;;;;;;13.27;65.42;95410.16;5067567;28;20255;-76
2022/05/21 02:50:33;;;;;;;3.25;2.95;;;;;;;13.33;65.82;95424.44;5066631;28;20198;-79
2022/05/21 02:53:01;;;;;;;4.50;2.63;;;;;;;12.94;66.17;95398.66;5067333;28;20194;-81
2022/05/21 02:55:27;;;;;;;3.42;2.72;;;;;;;13.08;65.87;95428.75;5066871;28;20201;-76
2022/05/21 02:57:55;;;;;;;2.63;2.42;;;;;;;13.15;65.87;95431.03;5067730;28;20202;-79
2022/05/21 03:00:26;;;;;;;8.43;2.50;;;;;;;13.27;65.24;95437.41;5067459;28;20923;-76
2022/05/21 03:02:54;;;;;;;5.40;2.28;;;;;;;13.34;64.45;95440.56;5066623;28;20688;-77
2022/05/21 03:05:22;;;;;;;10.77;3.00;;;;;;;13.31;64.86;95448.34;5065003;28;20198;-81
2022/05/21 03:07:51;;;;;;;3.35;2.90;;;;;;;13.28;64.69;95446.72;5065504;28;20205;-79
2022/05/21 03:10:22;;;;;;;3.60;2.70;;;;;;;13.36;62.92;95444.72;5065182;28;20259;-76
2022/05/21 03:12:54;;;;;;;2.65;2.35;;;;;;;13.26;63.77;95453.63;5066694;28;20967;-76
2022/05/21 03:15:24;;;;;;;8.15;2.80;;;;;;;12.62;65.77;95437.25;5063426;28;22079;-76
2022/05/21 03:17:50;;;;;;;6.00;3.65;;;;;;;12.01;68.09;95429.16;5065098;28;20291;-76
2022/05/21 03:20:21;;;;;;;6.05;2.80;;;;;;;11.38;70.54;95428.59;5065423;28;20254;-75
2022/05/21 03:22:48;;;;;;;3.58;3.28;;;;;;;11.19;71.77;95437.66;5065895;28;20668;-78
2022/05/21 03:25:16;;;;;;;6.95;3.55;;;;;;;11.21;72.13;95438.44;5064609;28;20201;-76
2022/05/21 03:27:43;;;;;;;9.57;4.10;;;;;;;11.33;71.13;95411.81;5065466;28;20197;-82
2022/05/21 03:30:12;;;;;;;5.68;4.43;;;;;;;12.24;68.95;95437.69;5065072;28;20255;-75
2022/05/21 03:32:39;;;;;;;4.78;3.58;;;;;;;13.99;63.29;95430.28;5065277;28;20229;-75
2022/05/21 03:35:07;;;;;;;6.03;3.88;;;;;;;14.66;60.11;95417.22;5065437;28;20236;-75
2022/05/21 03:37:36;;;;;;;6.97;4.38;;;;;;;15.63;56.98;95423.03;5066733;28;20318;-76
2022/05/21 03:40:04;;;;;;;6.32;4.15;;;;;;;15.83;56.43;95424.66;5066313;28;20586;-77
2022/05/21 03:42:31;;;;;;;6.68;3.75;;;;;;;15.94;56.19;95427.50;5067433;28;20250;-76
2022/05/21 03:44:58;;;;;;;8.77;4.00;;;;;;;15.91;56.27;95431.94;5066421;28;20209;-76
2022/05/21 03:47:25;;;;;;;5.45;4.53;;;;;;;16.18;55.59;95432.34;5066235;28;20205;-73
2022/05/21 03:49:52;;;;;;;5.75;4.60;;;;;;;16.10;54.87;95431.88;5066869;28;20741;-76
2022/05/21 03:52:20;;;;;;;6.32;5.80;;;;;;;16.03;55.34;95441.63;5067338;28;20193;-76
2022/05/21 03:54:48;;;;;;;10.40;7.88;;;;;;;15.99;54.81;95445.22;5066116;28;20227;-77
2022/05/21 03:57:15;;;;;;;9.52;7.38;;;;;;;15.80;55.19;95440.16;5066302;28;20660;-75
2022/05/21 03:59:42;;;;;;;8.63;7.25;;;;;;;15.75;56.00;95443.84;5066626;28;20201;-75
2022/05/21 04:02:09;;;;;;;7.10;5.68;;;;;;;15.73;55.59;95443.09;5066167;28;20197;-76
2022/05/21 04:04:36;;;;;;;7.13;4.80;;;;;;;15.81;55.52;95453.81;5066427;28;20718;-78
2022/05/21 04:07:03;;;;;;;7.90;3.67;;;;;;;15.61;55.20;95450.44;5066475;28;20215;-75
2022/05/21 04:09:30;;;;;;;4.97;3.28;;;;;;;16.00;53.89;95452.03;5066093;28;20202;-74
2022/05/21 04:11:58;;;;;;;11.00;3.65;;;;;;;16.11;53.17;95443.78;5066767;28;20205;-79
2022/05/21 04:14:27;;;;;;;3.42;2.95;;;;;;;16.07;53.22;95447.44;5065915;28;20233;-75
2022/05/21 04:16:55;;;;;;;3.33;3.03;;;;;;;16.23;52.25;95458.59;5065208;28;20865;-75
2022/05/21 04:19:23;;;;;;;4.65;3.38;;;;;;;16.14;51.87;95449.59;5065283;28;20318;-76
2022/05/21 04:21:50;;;;;;;4.32;2.90;;;;;;;16.14;51.74;95454.72;5066538;28;20233;-76
2022/05/21 04:24:16;;;;;;;5.07;2.92;;;;;;;16.37;51.37;95448.47;5066070;28;20729;-75
2022/05/21 04:26:43;;;;;;;2.90;2.70;;;;;;;16.73;50.84;95453.50;5065751;28;20211;-74
2022/05/21 04:29:11;;;;;;;7.57;3.17;;;;;;;16.68;50.76;95458.03;5064380;28;20331;-74
2022/05/21 04:31:38;;;;;;;3.70;3.40;;;;;;;16.81;51.23;95466.78;5065729;28;20217;-75
2022/05/21 04:34:05;;;;;;;2.60;2.35;;;;;;;17.04;51.15;95457.06;5065902;28;20309;-77
2022/05/21 04:36:32;;;;;;;5.55;2.75;;;;;;;17.12;50.50;95465.16;5065513;28;20197;-75
2022/05/21 04:38:59;;;;;;;5.38;3.17;;;;;;;17.09;50.29;95455.06;5065749;28;20205;-74
2022/05/21 04:41:26;;;;;;;5.00;3.40;;;;;;;17.23;49.39;95442.31;5066072;28;20224;-74
2022/05/21 04:43:54;;;;;;;5.47;3.78;;;;;;;17.28;49.62;95448.06;5065574;28;20749;-76
2022/05/21 04:46:24;;;;;;;7.28;3.83;;;;;;;16.98;50.70;95441.06;5065066;28;20627;-77
2022/05/21 04:48:51;;;;;;;4.85;3.17;;;;;;;17.16;51.05;95454.66;5065385;28;20193;-78
2022/05/21 04:51:19;;;;;;;3.33;3.10;;;;;;;17.24;50.29;95452.53;5066151;28;20209;-76
2022/05/21 04:53:46;;;;;;;3.10;2.83;;;;;;;17.14;50.55;95438.50;5065219;28;20229;-78
2022/05/21 04:56:13;;;;;;;3.80;2.45;;;;;;;17.11;50.72;95453.22;5065521;28;20208;-76
2022/05/21 04:58:40;;;;;;;2.90;2.53;;;;;;;17.00;50.81;95457.22;5065763;28;20201;-76
2022/05/21 05:01:07;;;;;;;9.38;2.63;;;;;;;17.13;50.16;95457.38;5066757;28;20264;-77
2022/05/21 05:03:36;;;;;;;2.92;2.72;;;;;;;16.88;50.86;95455.28;5067224;28;20206;-77
2022/05/21 05:06:03;;;;;;;3.40;2.72;;;;;;;16.99;50.68;95457.28;5065910;28;20206;-77
2022/05/21 05:08:30;;;;;;;3.50;2.50;;;;;;;17.34;48.83;95453.66;5068018;28;20202;-81
2022/05/21 05:10:57;;;;;;;3.85;2.60;;;;;;;18.79;45.86;95460.94;5069223;28;20587;-79
2022/05/21 05:13:24;;;;;;;3.80;2.55;;;;;;;20.88;42.01;95439.88;5068241;28;20680;-76
2022/05/21 05:15:51;;;;;;;3.58;2.47;;;;;;;24.15;36.05;95438.72;5069839;28;20225;-79
2022/05/21 05:18:21;;;;;;;8.02;2.50;;;;;;;26.76;31.26;95438.63;5068522;28;20202;-77
2022/05/21 05:20:50;;;;;;;5.30;2.42;;;;;;;29.10;27.75;95430.78;5066529;28;21507;-76
2022/05/21 05:23:18;;;;;;;3.92;2.83;;;;;;;30.33;26.22;95435.44;5064845;28;20206;-77
2022/05/21 05:25:44;;;;;;;4.55;2.35;;;;;;;31.97;23.93;95424.38;5064410;28;20293;-77
2022/05/21 05:28:17;;;;;;;7.50;2.92;;;;;;;33.55;22.00;95428.75;5064050;28;20201;-78
2022/05/21 05:30:44;;;;;;;4.53;3.42;;;;;;;34.10;21.09;95425.56;5066045;28;20201;-77
2022/05/21 05:33:11;;;;;;;4.82;3.50;;;;;;;33.94;21.43;95420.50;5065322;28;20720;-78
2022/05/21 05:35:38;;;;;;;4.13;3.53;;;;;;;34.22;21.45;95423.22;5065182;28;20929;-79
2022/05/21 05:38:08;;;;;;;3.17;3.03;;;;;;;34.93;20.60;95416.16;5064558;28;20209;-79
2022/05/21 05:40:36;;;;;;;4.40;3.22;;;;;;;35.23;20.10;95415.94;5066865;28;20753;-78
2022/05/21 05:43:03;;;;;;;4.97;3.65;;;;;;;34.59;20.52;95413.44;5069433;28;20316;-80
2022/05/21 05:45:30;;;;;;;4.20;3.08;;;;;;;35.18;20.31;95407.75;5069113;28;20209;-79
2022/05/21 05:47:57;;;;;;;3.83;3.40;;;;;;;35.16;19.38;95413.25;5067858;28;20202;-77
2022/05/21 05:50:24;;;;;;;5.72;3.47;;;;;;;34.57;20.18;95411.00;5068133;28;20199;-77
2022/05/21 05:52:51;;;;;;;3.15;2.88;;;;;;;34.35;20.35;95412.84;5069169;28;20206;-79
2022/05/21 05:55:20;;;;;;;13.38;5.85;;;;;;;34.24;20.76;95400.09;5068742;28;20241;-79
2022/05/21 05:57:51;;;;;;;8.65;5.32;;;;;;;34.00;20.99;95392.56;5067516;28;20213;-79
2022/05/21 06:00:18;;;;;;;5.68;4.97;;;;;;;33.22;21.63;95398.47;5068717;28;20198;-78
2022/05/21 06:03:01;;;;;;;4.05;3.17;;;;;;;32.97;21.52;95396.13;5069549;28;20202;-79
2022/05/21 06:05:30;;;;;;;5.43;3.38;;;;;;;32.70;21.51;95392.25;5068626;28;20196;-80
2022/05/21 06:07:59;;;;;;;9.00;5.55;;;;;;;31.92;22.72;95394.38;5068170;28;20189;-77
2022/05/21 06:10:31;;;;;;;5.65;3.80;;;;;;;33.02;21.74;95383.25;5068336;28;20229;-78
2022/05/21 06:12:58;;;;;;;3.47;3.17;;;;;;;33.19;21.32;95385.69;5069669;28;20209;-81
2022/05/21 06:15:26;;;;;;;9.27;3.60;;;;;;;33.13;22.00;95376.72;5068208;28;20740;-78
2022/05/21 06:17:53;;;;;;;8.45;5.45;;;;;;;33.08;21.95;95377.25;5068066;28;20205;-79
2022/05/21 06:20:23;;;;;;;8.25;5.97;;;;;;;31.82;23.49;95372.75;5067907;28;20233;-79
2022/05/21 06:22:50;;;;;;;6.75;4.80;;;;;;;31.68;23.50;95361.97;5069284;28;20214;-78
2022/05/21 06:25:20;;;;;;;3.95;3.28;;;;;;;31.71;23.34;95366.06;5067782;28;20318;-77
2022/05/21 06:27:50;;;;;;;7.07;3.45;;;;;;;30.60;24.64;95365.31;5067119;28;20209;-80
2022/05/21 06:30:19;;;;;;;3.30;3.00;;;;;;;29.03;27.24;95360.91;5067904;28;20811;-79
2022/05/21 06:32:46;;;;;;;7.75;2.60;;;;;;;29.16;26.67;95358.69;5069138;28;20229;-77
2022/05/21 06:35:15;;;;;;;8.32;4.53;;;;;;;29.00;27.29;95353.34;5068136;28;20278;-77
2022/05/21 06:37:42;;;;;;;5.28;3.10;;;;;;;29.34;26.84;95350.72;5068100;28;20680;-81
2022/05/21 06:40:11;;;;;;;5.10;4.32;;;;;;;29.30;27.34;95350.22;5068363;28;20255;-78
2022/05/21 06:42:38;;;;;;;5.28;4.30;;;;;;;29.49;26.00;95349.13;5068229;28;20846;-82
2022/05/21 06:45:08;;;;;;;5.97;3.40;;;;;;;29.34;26.89;95342.84;5068699;28;20209;-79
2022/05/21 06:47:36;;;;;;;15.20;7.78;;;;;;;29.36;26.97;95348.75;5067989;28;20210;-78
2022/05/21 06:50:04;;;;;;;8.77;5.03;;;;;;;29.04;27.09;95338.97;5068638;28;20213;-82
2022/05/21 06:52:32;;;;;;;4.93;3.78;;;;;;;29.00;26.71;95333.25;5069435;28;20193;-78
2022/05/21 06:55:00;;;;;;;33.83;13.85;;;;;;;28.92;26.11;95330.63;5067832;28;20263;-77
2022/05/21 06:57:28;;;;;;;11.77;7.43;;;;;;;29.04;25.47;95329.34;5068005;28;20237;-77
2022/05/21 06:59:56;;;;;;;15.77;9.23;;;;;;;28.32;27.07;95322.72;5067571;28;20287;-80
2022/05/21 07:02:24;;;;;;;11.90;4.72;;;;;;;27.75;27.81;95317.03;5069071;28;20310;-79
2022/05/21 07:07:43;;;;;;;10.93;3.75;;;;;;;26.95;28.89;95310.00;5067055;28;20216;-79
2022/05/21 07:10:14;;;;;;;9.10;3.95;;;;;;;26.56;29.32;95313.69;5067840;28;20201;-79
2022/05/21 07:12:41;;;;;;;14.18;9.82;;;;;;;26.48;30.01;95300.56;5068640;28;20731;-82
2022/05/21 07:15:09;;;;;;;5.82;3.67;;;;;;;25.97;30.65;95306.94;5068200;28;20274;-77
2022/05/21 07:17:38;;;;;;;9.48;7.85;;;;;;;25.73;30.76;95289.97;5067168;28;20238;-77
2022/05/21 07:20:08;;;;;;;4.25;3.13;;;;;;;25.51;31.57;95303.22;5068274;28;20291;-79
2022/05/21 07:22:35;;;;;;;8.27;6.50;;;;;;;25.43;31.77;95298.72;5068822;28;20287;-78
2022/05/21 07:25:02;;;;;;;4.05;3.58;;;;;;;25.79;30.72;95292.97;5068064;28;20209;-78
2022/05/21 07:27:29;;;;;;;4.55;3.38;;;;;;;26.07;31.47;95292.09;5067212;28;20205;-78
2022/05/21 07:29:56;;;;;;;7.28;3.67;;;;;;;25.76;31.59;95281.88;5067304;28;20704;-78
2022/05/21 07:32:27;;;;;;;7.97;4.82;;;;;;;25.87;31.75;95298.31;5068385;28;20221;-79
2022/05/21 07:34:59;;;;;;;4.72;3.50;;;;;;;25.92;31.62;95291.72;5067520;28;20282;-78
2022/05/21 07:37:26;;;;;;;5.07;3.40;;;;;;;26.23;31.12;95292.34;5067991;28;20197;-80
2022/05/21 07:39:52;;;;;;;3.65;3.00;;;;;;;26.17;31.04;95277.28;5067773;28;20296;-77
2022/05/21 07:42:19;;;;;;;4.65;3.10;;;;;;;25.75;31.03;95277.63;5067820;28;20258;-78
2022/05/21 07:44:46;;;;;;;5.15;2.75;;;;;;;25.48;32.60;95282.69;5067654;28;20202;-76
2022/05/21 07:47:13;;;;;;;7.43;3.35;;;;;;;25.38;32.98;95284.44;5066497;28;20198;-81
2022/05/21 07:49:42;;;;;;;13.18;4.57;;;;;;;25.68;32.73;95281.75;5066644;28;20208;-78
2022/05/21 07:52:11;;;;;;;9.23;3.70;;;;;;;25.81;32.32;95281.44;5067268;28;20198;-79
2022/05/21 07:54:38;;;;;;;8.60;3.45;;;;;;;25.75;31.85;95276.78;5066567;28;20287;-78
2022/05/21 07:57:05;;;;;;;9.07;4.65;;;;;;;25.84;32.34;95275.16;5067327;28;20202;-77
2022/05/21 07:59:32;;;;;;;4.43;2.88;;;;;;;25.79;32.72;95272.97;5066330;28;20668;-76
2022/05/21 08:01:58;;;;;;;9.48;3.05;;;;;;;25.74;32.62;95259.53;5067857;28;20278;-78
2022/05/21 08:04:25;;;;;;;9.02;3.33;;;;;;;26.12;32.01;95258.66;5066704;28;20207;-79
2022/05/21 08:06:52;;;;;;;6.88;3.65;;;;;;;25.62;32.27;95250.22;5067005;28;20202;-77
2022/05/21 08:09:21;;;;;;;3.13;2.72;;;;;;;25.29;32.79;95254.03;5069415;28;20271;-78
2022/05/21 08:11:48;;;;;;;5.60;3.00;;;;;;;25.42;32.13;95249.41;5075085;28;20221;-79
2022/05/21 08:14:15;;;;;;;10.65;3.30;;;;;;;25.43;32.86;95240.63;5066528;28;20201;-77
2022/05/21 08:16:42;;;;;;;3.72;3.10;;;;;;;25.57;33.30;95242.00;5066473;28;20293;-79
2022/05/21 08:19:09;;;;;;;4.65;3.30;;;;;;;25.38;33.58;95235.03;5065912;28;20237;-78
2022/05/21 08:21:35;;;;;;;3.63;2.95;;;;;;;25.31;33.43;95236.53;5067204;28;20243;-76
2022/05/21 08:26:57;;;;;;;6.57;4.93;;;;;;;25.67;33.32;95242.84;5066629;28;20224;-76
2022/05/21 08:29:25;;;;;;;7.75;3.10;;;;;;;26.10;31.23;95231.94;5065720;28;20201;-77
2022/05/21 08:31:52;;;;;;;7.68;4.50;;;;;;;26.37;32.02;95232.00;5066848;28;20214;-79
2022/05/21 08:34:19;;;;;;;5.72;3.88;;;;;;;26.73;31.52;95226.88;5066231;28;20730;-77
2022/05/21 08:36:46;;;;;;;3.45;3.15;;;;;;;26.84;32.34;95233.69;5066678;28;20232;-77
2022/05/21 08:39:13;;;;;;;8.85;3.03;;;;;;;26.84;31.58;95239.72;5065919;28;20205;-78
2022/05/21 08:41:45;;;;;;;6.18;3.38;;;;;;;26.84;31.33;95228.47;5067099;28;20700;-77
2022/05/21 08:44:19;;;;;;;4.90;2.38;;;;;;;27.07;31.23;95230.53;5066748;28;20209;-78
2022/05/21 08:47:01;;;;;;;7.03;3.25;;;;;;;27.25;31.24;95227.13;5067060;28;20202;-79
2022/05/21 08:49:33;;;;;;;3.38;2.95;;;;;;;27.50;31.11;95225.53;5062842;28;20198;-80
2022/05/21 08:52:05;;;;;;;6.78;3.33;;;;;;;27.20;30.94;95221.56;5066711;28;21473;-77
2022/05/21 08:54:35;;;;;;;3.58;2.78;;;;;;;27.37;30.21;95221.53;5066217;28;20736;-79
2022/05/21 08:57:04;;;;;;;5.97;2.83;;;;;;;27.43;30.06;95220.13;5066330;28;20306;-79
2022/05/21 08:59:38;;;;;;;5.95;3.00;;;;;;;27.05;30.91;95211.63;5065545;28;20254;-76
2022/05/21 09:02:10;;;;;;;6.28;5.07;;;;;;;27.42;30.37;95213.28;5066574;28;20445;-79
2022/05/21 09:04:38;;;;;;;10.77;9.27;;;;;;;27.53;29.68;95205.19;5066049;28;20660;-77
2022/05/21 09:07:13;;;;;;;6.72;4.30;;;;;;;27.69;30.42;95205.34;5065954;28;20213;-77
2022/05/21 09:09:55;;;;;;;5.97;3.53;;;;;;;28.01;30.13;95207.34;5065148;28;20697;-78
2022/05/21 09:12:24;;;;;;;8.65;4.25;;;;;;;28.27;29.44;95209.97;5066482;28;20212;-78
2022/05/21 09:14:54;;;;;;;7.05;3.58;;;;;;;28.23;29.88;95197.38;5065677;28;20209;-77
2022/05/21 09:17:24;;;;;;;8.27;2.63;;;;;;;28.50;28.97;95206.81;5069976;28;20553;-77
2022/05/21 09:19:55;;;;;;;2.55;2.35;;;;;;;28.19;27.21;95196.03;5069412;28;20193;-77
2022/05/21 09:22:23;;;;;;;4.30;2.38;;;;;;;28.34;28.19;95210.19;5070307;28;20754;-77
2022/05/21 09:24:52;;;;;;;3.50;2.22;;;;;;;28.31;27.44;95200.03;5069513;28;20201;-77
2022/05/21 09:27:27;;;;;;;3.05;2.42;;;;;;;28.39;27.66;95198.28;5069321;28;20268;-77
2022/05/21 09:30:11;;;;;;;12.57;3.83;;;;;;;28.44;28.23;95197.81;5069185;28;20200;-78
2022/05/21 09:32:40;;;;;;;5.07;2.60;;;;;;;28.55;27.72;95194.91;5069555;28;20712;-81
2022/05/21 09:35:11;;;;;;;13.73;10.82;;;;;;;28.61;27.82;95190.84;5068641;28;20233;-68
2022/05/21 09:37:39;;;;;;;9.50;7.78;;;;;;;28.55;27.99;95194.09;5069292;28;20198;-68
2022/05/21 09:40:24;;;;;;;8.70;5.22;;;;;;;28.34;27.40;95190.09;5068178;28;20397;-67
2022/05/21 09:45:40;;;;;;;8.07;4.15;;;;;;;28.46;27.66;95192.44;5069781;28;20277;-68
2022/05/21 09:48:24;;;;;;;8.00;5.40;;;;;;;28.26;27.59;95192.66;5067746;28;20225;-67
2022/05/21 09:50:54;;;;;;;3.90;3.03;;;;;;;28.31;27.53;95184.34;5069178;28;20209;-68
2022/05/21 09:53:27;;;;;;;4.85;4.45;;;;;;;28.07;28.02;95177.19;5069236;28;20206;-67
2022/05/21 09:55:59;;;;;;;4.63;4.20;;;;;;;28.06;28.02;95180.75;5069019;28;20226;-69
2022/05/21 09:58:26;;;;;;;6.78;5.97;;;;;;;28.20;28.96;95171.53;5067584;28;20201;-67
2022/05/21 10:00:57;;;;;;;21.05;16.23;;;;;;;28.38;28.86;95178.34;5069451;28;20202;-68
2022/05/21 10:03:39;;;;;;;22.65;15.52;;;;;;;28.54;28.20;95163.69;5069479;28;20742;-67
2022/05/21 10:06:16;;;;;;;9.55;7.88;;;;;;;28.43;27.89;95152.56;5068858;28;20202;-66
2022/05/21 10:11:33;;;;;;;13.07;10.25;;;;;;;28.38;29.16;95157.44;5069151;28;20228;-66
2022/05/21 10:14:03;;;;;;;33.40;23.50;;;;;;;28.49;29.12;95150.25;5069146;28;20239;-67
2022/05/21 10:16:36;;;;;;;23.33;18.35;;;;;;;28.52;28.83;95139.50;5068988;28;20261;-68
2022/05/21 10:19:13;;;;;;;14.52;11.40;;;;;;;28.69;28.81;95133.34;5068103;28;20254;-66
2022/05/21 10:21:53;;;;;;;9.90;7.15;;;;;;;28.85;29.21;95136.00;5067923;28;20233;-67
2022/05/21 10:24:30;;;;;;;12.90;10.68;;;;;;;28.92;29.05;95125.72;5068084;28;20193;-66
2022/05/21 10:27:08;;;;;;;23.83;16.30;;;;;;;29.08;28.99;95120.50;5068212;28;20259;-66
2022/05/21 10:29:56;;;;;;;4.65;3.30;;;;;;;29.10;28.69;95114.13;5067573;28;20307;-65
2022/05/21 10:32:34;;;;;;;4.07;3.58;;;;;;;28.90;28.54;95125.06;5068857;28;20791;-66
2022/05/21 10:35:25;;;;;;;8.88;4.40;;;;;;;28.96;27.81;95116.56;5068538;28;20622;-65
2022/05/21 10:38:02;;;;;;;3.60;2.50;;;;;;;28.87;28.41;95110.50;5068156;28;20283;-66
2022/05/21 10:40:37;;;;;;;3.15;2.95;;;;;;;29.13;27.98;95117.41;5068278;28;20200;-66
2022/05/21 10:43:23;;;;;;;3.03;2.80;;;;;;;29.09;28.66;95107.25;5067474;28;20241;-66
2022/05/21 10:46:13;;;;;;;4.00;2.97;;;;;;;28.99;28.18;95108.38;5068035;28;20282;-67
2022/05/21 10:49:12;;;;;;;3.53;3.22;;;;;;;29.13;27.58;95104.31;5067165;28;20218;-65
2022/05/21 10:51:49;;;;;;;2.58;2.35;;;;;;;29.22;27.12;95098.06;5037406;28;20806;-66
2022/05/21 10:54:29;;;;;;;4.18;2.08;;;;;;;29.08;27.59;95095.16;5068044;28;20194;-67
2022/05/21 10:57:13;;;;;;;3.25;3.05;;;;;;;29.08;25.56;95084.69;5067374;28;20221;-67
2022/05/21 10:59:52;;;;;;;3.20;2.65;;;;;;;29.19;27.25;95080.09;5067618;28;20296;-65
2022/05/21 11:02:51;;;;;;;2.65;2.45;;;;;;;29.16;26.39;95078.63;5067624;28;20193;-66
2022/05/21 11:05:41;;;;;;;1.85;1.75;;;;;;;29.11;24.87;95073.88;5067877;28;21439;-66
2022/05/21 11:08:12;;;;;;;3.90;1.75;;;;;;;29.26;24.54;95055.72;5067261;28;20297;-68
2022/05/21 11:10:44;;;;;;;12.88;10.02;;;;;;;29.27;24.60;95040.81;5067610;28;20209;-65
2022/05/21 11:13:16;;;;;;;16.70;11.43;;;;;;;29.46;25.15;95040.47;5067820;28;20895;-65
2022/05/21 11:15:48;;;;;;;11.90;8.00;;;;;;;29.65;24.36;95034.88;5067870;28;20201;-65
2022/05/21 11:18:20;;;;;;;17.38;12.32;;;;;;;29.82;23.66;95035.63;5067271;28;20263;-67
2022/05/21 11:21:05;;;;;;;9.20;7.93;;;;;;;29.91;23.64;95031.19;5067361;28;20314;-68
2022/05/21 11:23:39;;;;;;;3.95;2.42;;;;;;;29.77;22.43;95030.09;5067636;28;20212;-68
2022/05/21 11:26:12;;;;;;;6.15;5.65;;;;;;;29.81;23.70;95022.69;5066935;28;20354;-65
2022/05/21 11:28:43;;;;;;;4.47;4.18;;;;;;;29.90;23.90;95021.69;5066782;28;20202;-65
2022/05/21 11:31:16;;;;;;;5.55;3.17;;;;;;;29.53;24.38;95025.75;5066921;28;20218;-65
2022/05/21 11:39:21;;;;;;;6.32;5.03;;;;;;;29.89;24.48;95020.06;5066253;28;20732;-68
2022/05/21 11:42:11;;;;;;;6.90;5.15;;;;;;;29.75;25.21;94990.97;5067654;28;20205;-67
2022/05/21 11:47:51;;;;;;;4.93;3.35;;;;;;;29.72;24.79;95007.00;5066765;28;20278;-66
2022/05/21 11:50:22;;;;;;;3.45;3.25;;;;;;;29.60;25.28;95012.81;5066439;28;20193;-65
2022/05/21 11:53:09;;;;;;;5.07;3.60;;;;;;;29.61;25.40;95004.78;5066117;28;20202;-66
2022/05/21 11:55:59;;;;;;;3.17;2.88;;;;;;;29.46;25.03;94998.59;5067305;28;21451;-66
2022/05/21 11:58:43;;;;;;;4.13;3.40;;;;;;;29.75;25.92;94990.13;5066109;28;20229;-66
2022/05/21 12:01:09;;;;;;;3.15;2.85;;;;;;;30.03;25.50;94990.53;5066083;28;20209;-67
2022/05/21 12:03:55;;;;;;;5.28;2.88;;;;;;;30.11;26.28;94993.13;5066256;28;20228;-66
2022/05/21 12:06:38;;;;;;;4.50;3.63;;;;;;;30.20;25.49;94989.44;5066497;28;20628;-67
2022/05/21 12:09:25;;;;;;;3.25;2.95;;;;;;;30.13;25.07;94996.38;5065963;28;20687;-67
2022/05/21 12:12:13;;;;;;;5.43;5.00;;;;;;;29.99;25.54;94991.84;5066249;28;20683;-66
2022/05/21 12:14:50;;;;;;;4.07;3.78;;;;;;;30.02;25.86;94996.75;5066034;28;20212;-66